sensor_id;sensor_type;location;lat;lon;timestamp;pressure;altitude;pressure_sealevel;temperature;humidity
40920;BME280;26652;50.280;19.026;2023-07-31T00:00:17;97913.81;;;20.23;91.71
40920;BME280;26652;50.280;19.026;2023-07-31T00:02:38;97918.00;;;20.34;92.07
40920;BME280;26652;50.280;19.026;2023-07-31T00:04:38;97919.78;;;20.23;92.22
40920;BME280;26652;50.280;19.026;2023-07-31T00:06:39;97930.38;;;20.27;92.81
40920;BME280;26652;50.280;19.026;2023-07-31T00:08:40;97922.84;;;20.20;92.59
40920;BME280;26652;50.280;19.026;2023-07-31T00:10:41;97917.19;;;20.23;91.85
40920;BME280;26652;50.280;19.026;2023-07-31T00:12:42;97916.19;;;20.35;91.79
40920;BME280;26652;50.280;19.026;2023-07-31T00:14:43;97925.22;;;20.32;91.98
40920;BME280;26652;50.280;19.026;2023-07-31T00:16:44;97914.34;;;20.25;91.84
40920;BME280;26652;50.280;19.026;2023-07-31T00:18:45;97907.38;;;20.25;91.54
40920;BME280;26652;50.280;19.026;2023-07-31T00:20:45;97912.31;;;20.32;90.85
40920;BME280;26652;50.280;19.026;2023-07-31T00:22:46;97911.25;;;20.28;91.44
40920;BME280;26652;50.280;19.026;2023-07-31T00:24:47;97921.28;;;20.14;91.49
40920;BME280;26652;50.280;19.026;2023-07-31T00:26:47;97915.56;;;20.07;91.96
40920;BME280;26652;50.280;19.026;2023-07-31T00:28:48;97914.81;;;20.12;91.96
40920;BME280;26652;50.280;19.026;2023-07-31T00:30:49;97918.16;;;20.12;91.32
40920;BME280;26652;50.280;19.026;2023-07-31T00:32:49;97932.13;;;20.16;92.13
40920;BME280;26652;50.280;19.026;2023-07-31T00:34:50;97917.63;;;20.10;91.47
40920;BME280;26652;50.280;19.026;2023-07-31T00:36:50;97923.63;;;20.21;90.40
40920;BME280;26652;50.280;19.026;2023-07-31T00:38:51;97930.16;;;20.34;90.38
40920;BME280;26652;50.280;19.026;2023-07-31T00:40:52;97931.16;;;20.28;90.19
40920;BME280;26652;50.280;19.026;2023-07-31T00:42:53;97928.78;;;20.16;89.52
40920;BME280;26652;50.280;19.026;2023-07-31T00:44:53;97919.44;;;20.10;90.12
40920;BME280;26652;50.280;19.026;2023-07-31T00:46:55;97927.22;;;20.15;89.51
40920;BME280;26652;50.280;19.026;2023-07-31T00:48:56;97932.88;;;20.12;89.39
40920;BME280;26652;50.280;19.026;2023-07-31T00:50:57;97931.06;;;20.07;88.70
40920;BME280;26652;50.280;19.026;2023-07-31T00:52:58;97926.72;;;20.18;87.97
40920;BME280;26652;50.280;19.026;2023-07-31T00:54:59;97941.44;;;20.17;87.62
40920;BME280;26652;50.280;19.026;2023-07-31T00:57:00;97926.94;;;20.11;87.27
40920;BME280;26652;50.280;19.026;2023-07-31T00:59:01;97939.06;;;20.06;87.26
40920;BME280;26652;50.280;19.026;2023-07-31T01:01:01;97927.69;;;20.07;85.84
40920;BME280;26652;50.280;19.026;2023-07-31T01:03:03;97926.38;;;20.04;85.61
40920;BME280;26652;50.280;19.026;2023-07-31T01:05:04;97940.16;;;20.20;85.28
40920;BME280;26652;50.280;19.026;2023-07-31T01:07:14;97954.25;;;19.97;84.84
40920;BME280;26652;50.280;19.026;2023-07-31T01:09:29;97956.88;;;20.02;85.07
40920;BME280;26652;50.280;19.026;2023-07-31T01:11:38;97940.81;;;19.95;84.68
40920;BME280;26652;50.280;19.026;2023-07-31T01:13:42;97962.84;;;20.08;84.02
40920;BME280;26652;50.280;19.026;2023-07-31T01:15:43;97958.91;;;20.00;83.54
40920;BME280;26652;50.280;19.026;2023-07-31T01:17:44;97946.53;;;20.02;83.54
40920;BME280;26652;50.280;19.026;2023-07-31T01:19:45;97944.19;;;20.01;83.23
40920;BME280;26652;50.280;19.026;2023-07-31T01:22:11;97962.28;;;20.01;83.50
40920;BME280;26652;50.280;19.026;2023-07-31T01:24:35;97938.94;;;19.85;83.78
40920;BME280;26652;50.280;19.026;2023-07-31T01:26:45;97960.38;;;19.86;84.33
40920;BME280;26652;50.280;19.026;2023-07-31T01:28:58;97955.19;;;19.76;84.49
40920;BME280;26652;50.280;19.026;2023-07-31T01:31:02;97955.31;;;19.59;85.58
40920;BME280;26652;50.280;19.026;2023-07-31T01:33:04;97948.59;;;19.58;85.82
40920;BME280;26652;50.280;19.026;2023-07-31T01:35:07;97956.34;;;19.58;86.02
40920;BME280;26652;50.280;19.026;2023-07-31T01:37:09;97948.94;;;19.40;86.93
40920;BME280;26652;50.280;19.026;2023-07-31T01:39:09;97966.38;;;19.54;86.63
40920;BME280;26652;50.280;19.026;2023-07-31T01:41:10;97970.56;;;19.61;86.43
40920;BME280;26652;50.280;19.026;2023-07-31T01:43:11;97964.81;;;19.53;86.01
40920;BME280;26652;50.280;19.026;2023-07-31T01:45:12;97951.06;;;19.48;86.25
40920;BME280;26652;50.280;19.026;2023-07-31T01:47:12;97960.75;;;19.63;86.01
40920;BME280;26652;50.280;19.026;2023-07-31T01:49:13;97954.50;;;19.53;86.11
40920;BME280;26652;50.280;19.026;2023-07-31T01:51:13;97958.53;;;19.44;86.38
40920;BME280;26652;50.280;19.026;2023-07-31T01:53:14;97954.63;;;19.42;86.36
40920;BME280;26652;50.280;19.026;2023-07-31T01:55:15;97969.22;;;19.53;86.51
40920;BME280;26652;50.280;19.026;2023-07-31T01:57:16;97965.16;;;19.35;86.74
40920;BME280;26652;50.280;19.026;2023-07-31T01:59:16;97972.41;;;19.38;87.80
40920;BME280;26652;50.280;19.026;2023-07-31T02:01:17;97950.13;;;19.27;87.28
40920;BME280;26652;50.280;19.026;2023-07-31T02:03:18;97951.34;;;19.19;87.76
40920;BME280;26652;50.280;19.026;2023-07-31T02:05:18;97967.44;;;19.32;87.38
40920;BME280;26652;50.280;19.026;2023-07-31T02:07:19;97952.13;;;19.20;87.38
40920;BME280;26652;50.280;19.026;2023-07-31T02:09:20;97980.75;;;19.18;88.22
40920;BME280;26652;50.280;19.026;2023-07-31T02:11:20;97967.88;;;18.97;90.02
40920;BME280;26652;50.280;19.026;2023-07-31T02:13:21;97969.31;;;19.09;89.54
40920;BME280;26652;50.280;19.026;2023-07-31T02:15:21;97959.94;;;19.03;89.18
40920;BME280;26652;50.280;19.026;2023-07-31T02:17:22;97959.19;;;19.03;89.64
40920;BME280;26652;50.280;19.026;2023-07-31T02:19:23;97965.25;;;19.18;88.71
40920;BME280;26652;50.280;19.026;2023-07-31T02:21:24;97967.88;;;18.97;89.81
40920;BME280;26652;50.280;19.026;2023-07-31T02:23:24;97962.09;;;18.84;90.79
40920;BME280;26652;50.280;19.026;2023-07-31T02:25:25;97986.47;;;18.99;90.70
40920;BME280;26652;50.280;19.026;2023-07-31T02:27:25;97977.38;;;18.91;91.15
40920;BME280;26652;50.280;19.026;2023-07-31T02:29:28;97964.53;;;18.96;89.96
40920;BME280;26652;50.280;19.026;2023-07-31T02:31:28;97982.09;;;18.99;90.04
40920;BME280;26652;50.280;19.026;2023-07-31T02:33:29;97993.19;;;19.00;90.61
40920;BME280;26652;50.280;19.026;2023-07-31T02:35:30;97981.94;;;18.84;91.87
40920;BME280;26652;50.280;19.026;2023-07-31T02:37:30;97976.84;;;18.89;90.81
40920;BME280;26652;50.280;19.026;2023-07-31T02:39:31;97987.97;;;18.94;90.91
40920;BME280;26652;50.280;19.026;2023-07-31T02:41:32;97997.16;;;19.07;90.59
40920;BME280;26652;50.280;19.026;2023-07-31T02:43:32;97979.91;;;18.86;90.67
40920;BME280;26652;50.280;19.026;2023-07-31T02:45:33;97982.66;;;18.79;91.64
40920;BME280;26652;50.280;19.026;2023-07-31T02:47:34;97989.44;;;18.85;92.04
40920;BME280;26652;50.280;19.026;2023-07-31T02:49:34;97981.03;;;18.73;92.13
40920;BME280;26652;50.280;19.026;2023-07-31T02:51:35;97981.03;;;18.73;91.92
40920;BME280;26652;50.280;19.026;2023-07-31T02:53:36;97975.66;;;18.75;92.02
40920;BME280;26652;50.280;19.026;2023-07-31T02:55:36;97979.53;;;18.77;92.03
40920;BME280;26652;50.280;19.026;2023-07-31T02:57:37;97977.97;;;18.76;91.69
40920;BME280;26652;50.280;19.026;2023-07-31T02:59:38;97989.19;;;18.87;91.54
40920;BME280;26652;50.280;19.026;2023-07-31T03:01:38;97993.22;;;18.78;91.60
40920;BME280;26652;50.280;19.026;2023-07-31T03:03:41;98001.44;;;18.75;91.68
40920;BME280;26652;50.280;19.026;2023-07-31T03:05:42;98000.63;;;18.69;92.01
40920;BME280;26652;50.280;19.026;2023-07-31T03:07:43;98001.19;;;18.76;91.81
40920;BME280;26652;50.280;19.026;2023-07-31T03:09:43;98003.19;;;18.69;92.09
40920;BME280;26652;50.280;19.026;2023-07-31T03:11:44;98006.88;;;18.56;92.17
40920;BME280;26652;50.280;19.026;2023-07-31T03:13:45;98007.81;;;18.67;91.79
40920;BME280;26652;50.280;19.026;2023-07-31T03:15:45;98013.59;;;18.79;91.21
40920;BME280;26652;50.280;19.026;2023-07-31T03:17:46;98006.41;;;18.81;90.68
40920;BME280;26652;50.280;19.026;2023-07-31T03:19:47;98010.78;;;18.59;90.87
40920;BME280;26652;50.280;19.026;2023-07-31T03:21:47;98016.81;;;18.65;91.29
40920;BME280;26652;50.280;19.026;2023-07-31T03:23:48;98016.56;;;18.66;90.77
40920;BME280;26652;50.280;19.026;2023-07-31T03:25:59;98012.56;;;18.58;90.28
40920;BME280;26652;50.280;19.026;2023-07-31T03:28:00;98011.09;;;18.63;90.05
40920;BME280;26652;50.280;19.026;2023-07-31T03:30:02;98015.00;;;18.65;90.25
40920;BME280;26652;50.280;19.026;2023-07-31T03:32:03;98020.78;;;18.77;90.06
40920;BME280;26652;50.280;19.026;2023-07-31T03:34:04;98004.53;;;18.77;89.24
40920;BME280;26652;50.280;19.026;2023-07-31T03:36:05;98024.75;;;18.85;88.92
40920;BME280;26652;50.280;19.026;2023-07-31T03:38:06;98012.44;;;18.65;89.07
40920;BME280;26652;50.280;19.026;2023-07-31T03:40:07;98009.56;;;18.45;89.50
40920;BME280;26652;50.280;19.026;2023-07-31T03:42:08;98007.13;;;18.55;89.18
40920;BME280;26652;50.280;19.026;2023-07-31T03:44:08;98023.59;;;18.71;88.12
40920;BME280;26652;50.280;19.026;2023-07-31T03:46:09;98017.25;;;18.83;87.48
40920;BME280;26652;50.280;19.026;2023-07-31T03:48:10;98022.56;;;18.72;87.18
40920;BME280;26652;50.280;19.026;2023-07-31T03:50:10;98025.09;;;18.67;86.64
40920;BME280;26652;50.280;19.026;2023-07-31T03:52:11;98025.38;;;18.70;86.61
40920;BME280;26652;50.280;19.026;2023-07-31T03:54:12;98020.47;;;18.69;87.04
40920;BME280;26652;50.280;19.026;2023-07-31T03:56:13;98026.84;;;18.88;86.20
40920;BME280;26652;50.280;19.026;2023-07-31T03:58:14;98035.50;;;18.99;85.48
40920;BME280;26652;50.280;19.026;2023-07-31T04:00:15;98034.22;;;19.01;85.00
40920;BME280;26652;50.280;19.026;2023-07-31T04:02:15;98025.72;;;19.01;85.43
40920;BME280;26652;50.280;19.026;2023-07-31T04:04:16;98040.59;;;18.93;84.71
40920;BME280;26652;50.280;19.026;2023-07-31T04:06:17;98048.25;;;19.10;84.79
40920;BME280;26652;50.280;19.026;2023-07-31T04:08:18;98031.53;;;18.91;85.04
40920;BME280;26652;50.280;19.026;2023-07-31T04:10:19;98042.69;;;18.97;84.90
40920;BME280;26652;50.280;19.026;2023-07-31T04:12:19;98027.44;;;18.95;84.96
40920;BME280;26652;50.280;19.026;2023-07-31T04:14:20;98039.44;;;19.06;84.82
40920;BME280;26652;50.280;19.026;2023-07-31T04:16:21;98049.75;;;19.28;84.39
40920;BME280;26652;50.280;19.026;2023-07-31T04:18:21;98043.13;;;19.37;84.20
40920;BME280;26652;50.280;19.026;2023-07-31T04:20:22;98041.09;;;19.39;83.30
40920;BME280;26652;50.280;19.026;2023-07-31T04:22:23;98039.03;;;19.41;82.98
40920;BME280;26652;50.280;19.026;2023-07-31T04:24:23;98031.47;;;19.35;83.48
40920;BME280;26652;50.280;19.026;2023-07-31T04:26:27;98035.75;;;19.24;83.78
40920;BME280;26652;50.280;19.026;2023-07-31T04:28:27;98044.63;;;19.33;83.31
40920;BME280;26652;50.280;19.026;2023-07-31T04:30:28;98044.28;;;19.24;83.99
40920;BME280;26652;50.280;19.026;2023-07-31T04:32:29;98035.28;;;19.27;83.56
40920;BME280;26652;50.280;19.026;2023-07-31T04:34:30;98030.47;;;19.36;83.01
40920;BME280;26652;50.280;19.026;2023-07-31T04:36:30;98038.50;;;19.39;82.16
40920;BME280;26652;50.280;19.026;2023-07-31T04:38:31;98047.69;;;19.52;82.25
40920;BME280;26652;50.280;19.026;2023-07-31T04:40:32;98037.28;;;19.47;81.75
40920;BME280;26652;50.280;19.026;2023-07-31T04:42:32;98033.44;;;19.49;81.78
40920;BME280;26652;50.280;19.026;2023-07-31T04:44:33;98048.06;;;19.66;81.58
40920;BME280;26652;50.280;19.026;2023-07-31T04:46:34;98049.34;;;19.63;81.66
40920;BME280;26652;50.280;19.026;2023-07-31T04:48:35;98052.66;;;19.58;80.06
40920;BME280;26652;50.280;19.026;2023-07-31T04:50:35;98050.91;;;19.64;80.47
40920;BME280;26652;50.280;19.026;2023-07-31T04:52:36;98059.78;;;19.78;80.41
40920;BME280;26652;50.280;19.026;2023-07-31T04:54:37;98051.00;;;19.74;79.34
40920;BME280;26652;50.280;19.026;2023-07-31T04:56:38;98060.63;;;19.89;77.73
40920;BME280;26652;50.280;19.026;2023-07-31T04:58:38;98057.72;;;20.12;77.67
40920;BME280;26652;50.280;19.026;2023-07-31T05:00:39;98059.72;;;20.05;76.74
40920;BME280;26652;50.280;19.026;2023-07-31T05:02:39;98052.06;;;19.83;77.28
40920;BME280;26652;50.280;19.026;2023-07-31T05:04:40;98070.63;;;19.80;77.59
40920;BME280;26652;50.280;19.026;2023-07-31T05:06:41;98052.53;;;19.75;77.09
40920;BME280;26652;50.280;19.026;2023-07-31T05:08:42;98052.81;;;19.79;77.75
40920;BME280;26652;50.280;19.026;2023-07-31T05:10:43;98058.72;;;19.74;77.87
40920;BME280;26652;50.280;19.026;2023-07-31T05:12:44;98062.28;;;19.68;77.74
40920;BME280;26652;50.280;19.026;2023-07-31T05:14:45;98067.28;;;19.80;77.39
40920;BME280;26652;50.280;19.026;2023-07-31T05:16:45;98048.06;;;19.66;77.68
40920;BME280;26652;50.280;19.026;2023-07-31T05:18:47;98052.22;;;19.67;77.46
40920;BME280;26652;50.280;19.026;2023-07-31T05:20:47;98064.34;;;19.66;76.51
40920;BME280;26652;50.280;19.026;2023-07-31T05:22:48;98077.66;;;19.85;77.05
40920;BME280;26652;50.280;19.026;2023-07-31T05:24:49;98054.72;;;19.93;75.30
40920;BME280;26652;50.280;19.026;2023-07-31T05:26:49;98079.94;;;20.13;75.51
40920;BME280;26652;50.280;19.026;2023-07-31T05:28:50;98068.63;;;20.19;75.64
40920;BME280;26652;50.280;19.026;2023-07-31T05:30:50;98061.63;;;20.20;74.38
40920;BME280;26652;50.280;19.026;2023-07-31T05:32:52;98076.63;;;20.18;73.91
40920;BME280;26652;50.280;19.026;2023-07-31T05:34:52;98082.00;;;20.11;74.70
40920;BME280;26652;50.280;19.026;2023-07-31T05:36:53;98077.00;;;20.00;76.28
40920;BME280;26652;50.280;19.026;2023-07-31T05:38:54;98075.69;;;19.97;74.80
40920;BME280;26652;50.280;19.026;2023-07-31T05:40:55;98087.66;;;20.08;75.09
40920;BME280;26652;50.280;19.026;2023-07-31T05:42:55;98060.19;;;19.97;75.72
40920;BME280;26652;50.280;19.026;2023-07-31T05:44:56;98060.50;;;20.06;73.94
40920;BME280;26652;50.280;19.026;2023-07-31T05:46:57;98080.03;;;20.23;73.67
40920;BME280;26652;50.280;19.026;2023-07-31T05:48:58;98081.91;;;20.33;73.94
40920;BME280;26652;50.280;19.026;2023-07-31T05:51:01;98072.75;;;20.20;73.95
40920;BME280;26652;50.280;19.026;2023-07-31T05:53:01;98071.44;;;20.18;73.54
40920;BME280;26652;50.280;19.026;2023-07-31T05:55:02;98072.00;;;20.25;73.25
40920;BME280;26652;50.280;19.026;2023-07-31T05:57:03;98071.72;;;20.21;73.26
40920;BME280;26652;50.280;19.026;2023-07-31T05:59:04;98070.03;;;20.00;73.41
40920;BME280;26652;50.280;19.026;2023-07-31T06:01:05;98071.41;;;20.13;73.18
40920;BME280;26652;50.280;19.026;2023-07-31T06:03:06;98072.78;;;20.25;72.86
40920;BME280;26652;50.280;19.026;2023-07-31T06:05:07;98070.53;;;20.34;72.46
40920;BME280;26652;50.280;19.026;2023-07-31T06:07:08;98065.69;;;20.43;72.34
40920;BME280;26652;50.280;19.026;2023-07-31T06:09:08;98070.91;;;20.48;71.86
40920;BME280;26652;50.280;19.026;2023-07-31T06:11:09;98078.88;;;20.41;70.97
40920;BME280;26652;50.280;19.026;2023-07-31T06:13:10;98068.72;;;20.35;70.57
40920;BME280;26652;50.280;19.026;2023-07-31T06:15:10;98072.81;;;20.31;71.32
40920;BME280;26652;50.280;19.026;2023-07-31T06:17:11;98070.63;;;20.12;71.71
40920;BME280;26652;50.280;19.026;2023-07-31T06:19:12;98080.75;;;20.19;71.83
40920;BME280;26652;50.280;19.026;2023-07-31T06:21:13;98078.47;;;20.22;72.00
40920;BME280;26652;50.280;19.026;2023-07-31T06:23:13;98088.47;;;20.46;71.91
40920;BME280;26652;50.280;19.026;2023-07-31T06:25:14;98078.19;;;20.56;71.93
40920;BME280;26652;50.280;19.026;2023-07-31T06:27:15;98082.91;;;20.69;71.49
40920;BME280;26652;50.280;19.026;2023-07-31T06:29:16;98092.25;;;20.80;71.08
40920;BME280;26652;50.280;19.026;2023-07-31T06:31:17;98079.72;;;20.52;70.34
40920;BME280;26652;50.280;19.026;2023-07-31T06:33:21;98073.31;;;20.28;71.47
40920;BME280;26652;50.280;19.026;2023-07-31T06:35:21;98080.34;;;20.32;71.87
40920;BME280;26652;50.280;19.026;2023-07-31T06:37:22;98069.75;;;20.34;72.25
40920;BME280;26652;50.280;19.026;2023-07-31T06:39:22;98085.41;;;20.54;71.97
40920;BME280;26652;50.280;19.026;2023-07-31T06:41:23;98087.28;;;20.64;70.95
40920;BME280;26652;50.280;19.026;2023-07-31T06:43:24;98068.38;;;20.58;70.94
40920;BME280;26652;50.280;19.026;2023-07-31T06:45:25;98075.66;;;20.66;70.57
40920;BME280;26652;50.280;19.026;2023-07-31T06:47:25;98064.50;;;20.61;70.03
40920;BME280;26652;50.280;19.026;2023-07-31T06:49:26;98061.50;;;20.37;70.16
40920;BME280;26652;50.280;19.026;2023-07-31T06:51:27;98065.22;;;20.14;71.12
40920;BME280;26652;50.280;19.026;2023-07-31T06:53:28;98074.81;;;20.18;70.70
40920;BME280;26652;50.280;19.026;2023-07-31T06:55:29;98073.06;;;20.29;70.88
40920;BME280;26652;50.280;19.026;2023-07-31T06:57:30;98076.56;;;20.45;70.31
40920;BME280;26652;50.280;19.026;2023-07-31T06:59:30;98073.50;;;20.53;68.49
40920;BME280;26652;50.280;19.026;2023-07-31T07:01:31;98067.16;;;20.71;68.25
40920;BME280;26652;50.280;19.026;2023-07-31T07:03:32;98067.97;;;20.92;68.84
40920;BME280;26652;50.280;19.026;2023-07-31T07:05:33;98080.19;;;21.01;67.10
40920;BME280;26652;50.280;19.026;2023-07-31T07:07:34;98086.66;;;21.04;68.00
40920;BME280;26652;50.280;19.026;2023-07-31T07:09:34;98069.63;;;21.13;67.20
40920;BME280;26652;50.280;19.026;2023-07-31T07:11:35;98074.84;;;21.23;65.33
40920;BME280;26652;50.280;19.026;2023-07-31T07:13:38;98066.31;;;21.28;65.13
40920;BME280;26652;50.280;19.026;2023-07-31T07:15:38;98082.94;;;21.42;66.05
40920;BME280;26652;50.280;19.026;2023-07-31T07:17:39;98085.53;;;21.42;66.39
40920;BME280;26652;50.280;19.026;2023-07-31T07:19:40;98085.78;;;21.45;66.35
40920;BME280;26652;50.280;19.026;2023-07-31T07:21:41;98071.31;;;21.54;64.13
40920;BME280;26652;50.280;19.026;2023-07-31T07:23:42;98069.78;;;21.79;63.59
40920;BME280;26652;50.280;19.026;2023-07-31T07:25:44;98067.44;;;21.77;62.61
40920;BME280;26652;50.280;19.026;2023-07-31T07:27:45;98070.53;;;21.84;63.23
40920;BME280;26652;50.280;19.026;2023-07-31T07:29:46;98071.31;;;21.90;62.98
40920;BME280;26652;50.280;19.026;2023-07-31T07:31:47;98066.41;;;22.09;61.60
40920;BME280;26652;50.280;19.026;2023-07-31T07:33:48;98075.72;;;22.35;61.89
40920;BME280;26652;50.280;19.026;2023-07-31T07:35:48;98078.53;;;22.54;61.66
40920;BME280;26652;50.280;19.026;2023-07-31T07:37:49;98072.03;;;22.57;61.27
40920;BME280;26652;50.280;19.026;2023-07-31T07:39:53;98076.66;;;22.70;60.31
40920;BME280;26652;50.280;19.026;2023-07-31T07:41:54;98082.38;;;22.67;58.21
40920;BME280;26652;50.280;19.026;2023-07-31T07:43:55;98081.38;;;22.47;59.82
40920;BME280;26652;50.280;19.026;2023-07-31T07:45:56;98075.19;;;22.43;60.35
40920;BME280;26652;50.280;19.026;2023-07-31T07:47:56;98074.63;;;22.62;61.13
40920;BME280;26652;50.280;19.026;2023-07-31T07:49:57;98070.47;;;22.56;60.56
40920;BME280;26652;50.280;19.026;2023-07-31T07:51:58;98066.88;;;22.36;60.25
40920;BME280;26652;50.280;19.026;2023-07-31T07:53:59;98066.66;;;22.17;60.81
40920;BME280;26652;50.280;19.026;2023-07-31T07:55:59;98074.16;;;21.99;61.98
40920;BME280;26652;50.280;19.026;2023-07-31T07:58:00;98078.84;;;21.71;62.56
40920;BME280;26652;50.280;19.026;2023-07-31T08:00:01;98074.69;;;22.06;62.54
40920;BME280;26652;50.280;19.026;2023-07-31T08:02:02;98073.34;;;22.44;62.18
40920;BME280;26652;50.280;19.026;2023-07-31T08:04:02;98070.22;;;22.57;61.83
40920;BME280;26652;50.280;19.026;2023-07-31T08:06:03;98097.16;;;22.81;61.55
40920;BME280;26652;50.280;19.026;2023-07-31T08:08:04;98072.78;;;22.62;61.21
40920;BME280;26652;50.280;19.026;2023-07-31T08:10:05;98083.94;;;22.63;62.15
40920;BME280;26652;50.280;19.026;2023-07-31T08:12:06;98086.31;;;22.49;62.06
40920;BME280;26652;50.280;19.026;2023-07-31T08:14:07;98084.25;;;22.46;62.14
40920;BME280;26652;50.280;19.026;2023-07-31T08:16:08;98082.44;;;22.36;60.93
40920;BME280;26652;50.280;19.026;2023-07-31T08:18:09;98077.28;;;22.31;60.82
40920;BME280;26652;50.280;19.026;2023-07-31T08:20:11;98094.13;;;22.34;60.22
40920;BME280;26652;50.280;19.026;2023-07-31T08:22:12;98078.06;;;22.27;60.50
40920;BME280;26652;50.280;19.026;2023-07-31T08:24:13;98081.69;;;22.31;61.35
40920;BME280;26652;50.280;19.026;2023-07-31T08:26:15;98079.59;;;22.43;60.80
40920;BME280;26652;50.280;19.026;2023-07-31T08:28:16;98100.03;;;22.70;61.06
40920;BME280;26652;50.280;19.026;2023-07-31T08:30:17;98076.44;;;22.61;60.79
40920;BME280;26652;50.280;19.026;2023-07-31T08:32:18;98088.59;;;22.71;60.64
40920;BME280;26652;50.280;19.026;2023-07-31T08:34:19;98100.81;;;22.70;60.33
40920;BME280;26652;50.280;19.026;2023-07-31T08:36:19;98090.22;;;22.51;60.01
40920;BME280;26652;50.280;19.026;2023-07-31T08:38:20;98075.19;;;22.43;59.98
40920;BME280;26652;50.280;19.026;2023-07-31T08:40:21;98103.19;;;22.46;58.34
40920;BME280;26652;50.280;19.026;2023-07-31T08:42:22;98086.88;;;22.31;59.39
40920;BME280;26652;50.280;19.026;2023-07-31T08:44:23;98098.25;;;22.55;59.75
40920;BME280;26652;50.280;19.026;2023-07-31T08:46:25;98085.25;;;22.60;59.56
40920;BME280;26652;50.280;19.026;2023-07-31T08:48:26;98093.03;;;22.65;58.94
40920;BME280;26652;50.280;19.026;2023-07-31T08:50:28;98088.31;;;22.88;59.59
40920;BME280;26652;50.280;19.026;2023-07-31T08:52:29;98082.63;;;22.80;62.15
40920;BME280;26652;50.280;19.026;2023-07-31T08:54:30;98096.09;;;22.77;61.72
40920;BME280;26652;50.280;19.026;2023-07-31T08:56:33;98092.50;;;22.68;60.77
40920;BME280;26652;50.280;19.026;2023-07-31T08:58:34;98091.44;;;22.74;58.61
40920;BME280;26652;50.280;19.026;2023-07-31T09:00:36;98077.88;;;22.93;60.18
40920;BME280;26652;50.280;19.026;2023-07-31T09:02:43;98084.06;;;23.07;56.01
40920;BME280;26652;50.280;19.026;2023-07-31T09:04:45;98081.34;;;23.32;55.05
40920;BME280;26652;50.280;19.026;2023-07-31T09:06:47;98082.06;;;23.43;56.02
40920;BME280;26652;50.280;19.026;2023-07-31T09:08:49;98078.19;;;23.35;57.10
40920;BME280;26652;50.280;19.026;2023-07-31T09:10:50;98077.13;;;23.41;54.84
40920;BME280;26652;50.280;19.026;2023-07-31T09:12:51;98073.78;;;23.36;54.73
40920;BME280;26652;50.280;19.026;2023-07-31T09:14:52;98088.50;;;23.51;56.08
40920;BME280;26652;50.280;19.026;2023-07-31T09:16:57;98075.94;;;23.19;54.12
40920;BME280;26652;50.280;19.026;2023-07-31T09:18:59;98071.38;;;23.00;56.10
40920;BME280;26652;50.280;19.026;2023-07-31T09:21:05;98074.75;;;23.01;55.33
40920;BME280;26652;50.280;19.026;2023-07-31T09:23:09;98086.09;;;23.15;56.27
40920;BME280;26652;50.280;19.026;2023-07-31T09:25:24;98084.75;;;23.23;55.00
40920;BME280;26652;50.280;19.026;2023-07-31T09:27:25;98071.44;;;23.39;54.27
40920;BME280;26652;50.280;19.026;2023-07-31T09:29:27;98081.56;;;23.41;55.18
40920;BME280;26652;50.280;19.026;2023-07-31T09:31:47;98070.78;;;23.13;55.99
40920;BME280;26652;50.280;19.026;2023-07-31T09:33:54;98068.78;;;22.95;55.69
40920;BME280;26652;50.280;19.026;2023-07-31T09:35:58;98085.16;;;22.96;55.61
40920;BME280;26652;50.280;19.026;2023-07-31T09:38:03;98065.66;;;22.98;53.81
40920;BME280;26652;50.280;19.026;2023-07-31T09:40:05;98061.94;;;23.20;53.31
40920;BME280;26652;50.280;19.026;2023-07-31T09:42:06;98068.09;;;23.34;54.55
40920;BME280;26652;50.280;19.026;2023-07-31T09:44:07;98062.88;;;23.34;52.67
40920;BME280;26652;50.280;19.026;2023-07-31T09:46:13;98069.34;;;23.41;53.34
40920;BME280;26652;50.280;19.026;2023-07-31T09:48:18;98074.03;;;23.39;53.20
40920;BME280;26652;50.280;19.026;2023-07-31T09:50:20;98077.09;;;23.46;53.11
40920;BME280;26652;50.280;19.026;2023-07-31T09:52:22;98056.53;;;23.55;53.81
40920;BME280;26652;50.280;19.026;2023-07-31T09:54:22;98045.69;;;23.43;52.01
40920;BME280;26652;50.280;19.026;2023-07-31T09:56:23;98057.88;;;23.47;52.66
40920;BME280;26652;50.280;19.026;2023-07-31T09:58:25;98057.56;;;23.59;51.29
40920;BME280;26652;50.280;19.026;2023-07-31T10:00:30;98052.28;;;23.69;51.53
40920;BME280;26652;50.280;19.026;2023-07-31T10:02:31;98061.56;;;24.09;51.51
40920;BME280;26652;50.280;19.026;2023-07-31T10:04:32;98053.19;;;24.12;52.12
40920;BME280;26652;50.280;19.026;2023-07-31T10:06:34;98057.69;;;23.78;52.24
40920;BME280;26652;50.280;19.026;2023-07-31T10:08:36;98060.47;;;23.87;52.69
40920;BME280;26652;50.280;19.026;2023-07-31T10:10:41;98045.25;;;23.99;50.63
40920;BME280;26652;50.280;19.026;2023-07-31T10:12:43;98055.31;;;23.82;51.28
40920;BME280;26652;50.280;19.026;2023-07-31T10:14:46;98042.91;;;23.73;51.47
40920;BME280;26652;50.280;19.026;2023-07-31T10:16:47;98042.28;;;24.10;52.30
40920;BME280;26652;50.280;19.026;2023-07-31T10:18:49;98037.50;;;23.94;50.75
40920;BME280;26652;50.280;19.026;2023-07-31T10:20:52;98030.47;;;23.94;49.57
40920;BME280;26652;50.280;19.026;2023-07-31T10:22:54;98032.03;;;23.95;49.88
40920;BME280;26652;50.280;19.026;2023-07-31T10:24:57;98039.44;;;24.12;50.23
40920;BME280;26652;50.280;19.026;2023-07-31T10:27:00;98027.78;;;24.33;50.42
40920;BME280;26652;50.280;19.026;2023-07-31T10:29:03;98032.78;;;24.30;49.89
40920;BME280;26652;50.280;19.026;2023-07-31T10:31:05;98030.69;;;24.32;49.80
40920;BME280;26652;50.280;19.026;2023-07-31T10:33:06;98022.59;;;24.33;49.64
40920;BME280;26652;50.280;19.026;2023-07-31T10:35:08;98022.59;;;24.33;49.30